Change Date:Time:

Metar of : 11/19/2017 0100UTC
Metar
OPAP BW 00000KT 1500 BR NSC 12/10 Q1018 88%
OPAS 27002KT 4000 FEW040 M01/M08 56%
OPBKR 00000KT 3000 FU NSC 11/09 87%
OPBR 00000KT 0500 FG NSC 11/10 94%
OPBW 05002KT 1400 BR NSC 12/10 88%
OPCK 00000KT 9999 SKC 09/08 94%
OPDG 31002KT 3000 BR NSC 10/08 Q1017 87%
OPDU 190100Z 00000KT 3000 FU NSC 12/09 82%
OPFA 00000KT 4000 FU NSC 10/08 Q1017 BECMG 3000 BR RH87%
OPGP 00000KT 5000 FU FEW030 08/07 94%
OPGT 00000KT 4000 FEW100 02/M01 Q1025 83% A/V O.H P.CLOUDY
OPGW 00000KT 4000 FU SKC 12/10 88%
OPHQ 000000KT 4000 BR NSC 07/06 Q1018 RH 93%
OPJBD 00000KT 0400 FG NSC 10/10 100%
OPJG 00000KT 6000 NSC 09/07 Q1018 86%
OPJM 00000KT 3000 BR NSC 11/08 81%
OPKAD 00000KT 4000 FU NSC 11/09 87%
OPKC 190100Z 00000KT 7000 NSC 16/06 Q1016 50%
OPKD 190100U 36004KT 6000 NSC 17/08 Q1016 56%NO SIG
OPKE 190100U 00000KT 6000 SKC 12/08 Q1016 76%
OPKL 05002KT 8000 NSC 12/07 71%
OPKP 00000KT 2500 BR NSC 10/08 87%
OPKRL 00000KT 4000 FU NSC 11/09 87%
OPKS 00000KT 1000 BR NSC 12/10 88%
OPLA 00000KT 4000 FU NSC 11/07 Q1017 A30.00 BECMG 3000 BR NOSIG RH 81%
OPLA(CITY) 190100Z 00000KT 3000 FU NSC 14/10 Q.1017 RH77%
OPLRK 190100Z 31502KT 6000 NSC 13/11 Q1018 83%
OPMA 23004KT 3500 FU NSC 10/07 Q1018 81%
OPMB 00000KT 2000 BR NSC 11/10 Q1018 94%
OPME 36010KT 8000 SKC 05/-04 52%
OPMF 31002KT 6000 NSC 08/06 87%
OPMIT 190100Z 36006KT 6000 NSC 13/06 Q1014 61%
OPMJ 190100Z 00000KT 1000 BR NSC 11/09 Q1017 87%NO SIG
OPMT 00000KT 4000 FU NSC 12/09 Q1017 NOSIG RH 82%
OPNH 190100Z 36004KT 2500 BR NSC 14/11 Q1015 83%TEMPO 2000 BR
OPNPT 00000KT 9999 NSC 09/07 87%
OPOK 00000KT 3000 BR NSC 12/09 Q1018 82%
OPPG 190100z 36010KT 6km SkC 07/m04 Q1022 47%
OPPS 18006KT 4000 BR FEW100 09/07 Q1018
OPQT 13004KT 4000 SKC M01/M04 Q1026 RH 79%
OPRK 00000KT 3000 BR NSC 11/09 Q1018 87%
OPRN 00000KT 4000 BR NSC 09/06 Q1017.5 RH 81%
OPRRI 190100Z 00000KT 8000 HZ NSC 12/09 P1P1 0108
OPRT 00000KT 7000 DZ BKN 040 04/02 Q1025 92%
OPSD 00000KT 7000 NSC M01/M03 Q1025 82% A/V CLEAR
OPSG 00000KT 3000 BR NSC 11/09 88%
OPSK 190100Z 05004KT 1500 BR NSC 12/10 Q1017 TEMPO1500BR
OPSKD 190100Z 00000KT 5000 NSC 14/11 83%
OPSKT 00000KT 3000 FU FEW035 10/09 RH93%
OPST 00000KT 3000 FU NSC 09/07 Q1018 NOSIG RH86%
OPSW 00000KT 3000 BR NSC 12/09 Q1017 82%
OPTJM 190100Z 00000kT 6000 NSC 13/10 Q1021 83%
OPTS 00000KT 2000 BR NSC 10/08 87%
OPUG 00000KT 3000 FU NSC 11/08 81%
CodeW.DirSpeedVisibilityCloud ConditionTempPressureHumidityStation
OPAP00000KT1500mMist12oC1018hp88%B-PUR A/P
OPAS27002KT4000mPartly Cloudy01oC56%ASTORE
OPBKR00000KT3000mHaze11oC87%Bhakkar
OPBR00000KT0500mFog11oC94%Bahawalnagar
OPBW05002KT1400mMist12oC88%Bahawalpur
OPCK00000KT9999mClear09oC94%Chakwal
OPDG31002KT3000mMist10oC1017hp87%D-G-KHAN
OPFA00000KT4000mHaze10oC1017hp87%Faisalabad
OPGP00000KT5000mPartly Cloudy08oC94%GARHI DOPATTA
OPGT00000KT4000mPartly Cloudy02oC1025hpGilgit
OPGW00000KT4000mHaze12oC88%Gujranwala
OPHQ00000KT4000mMist07oC1018hp93%Islamabad
OPJBD00000KT0400mFog10oC00%Joharabad
OPJG00000KT6000mClear09oC1018hp86%Jhang
OPJM00000KT3000mMist11oC81%Jhelum
OPKAD00000KT4000mHaze11oC87%KOT ADDU
OPKC00000KT7000mClear16oC50%KARACHI A/P
OPKD36004KT6000mClear17oCHyderabad
OPKE00000KT6000mClear12oC76%Chhor
OPKL05002KT8000mClear12oC71%Kotli
OPKP00000KT2500mMist10oC87%Khanpur
OPKRL00000KT4000mHaze11oC87%KAROR (LAYYAH)
OPKS00000KT1000mMist12oC88%Kasur
OPLA00000KT4000mHaze11oC1017hp81%LAHORE A/P
OPMA23004KT3500mHaze10oC1018hp81%Mangla
OPMB00000KT2000mMist11oC1018hp94%MANDI BAHUDDIN
OPME36010KT8000mClear05oC52%Murree
OPMF31002KT6000mClear08oC87%MUZAFFARABAD
OPMJ00000KT1000mMist11oCMOHENJO DARO
OPMT00000KT4000mHaze12oC1017hp82%Multan
OPNH36004KT2500mMist14oC1015hp83%Sh Benazirabad
OPNPT00000KT9999mClear09oC87%NOOR PUR THAL
OPOK00000KT3000mMist12oC1018hp82%Okara
OPPG36010KT6000mClear07oC1022hp47%Panjgur
OPPS18006KT4000mMist09oC1018hpPeshawar
OPQT13004KT4000mClear01oC1026hp79%Quetta
OPRK00000KT3000mMist11oC1018hp87%R-Y-KHAN
OPRN00000KT4000mMist09oC81%CHAKLALA- RAWALPINDI
OPRT00000KT7000mThunder Rain04oC1025hp92%Rawalakot
OPSD00000KT7000mClear01oC1025hp82%Skardu
OPSK05004KT1500mMist12oC1017hpSukkur
OPST00000KT3000mHaze09oC1018hp86%SIAL A/P SIALKOT
OPSW00000KT3000mMist12oC1017hp82%Sahiwal
OPTS00000KT2000mMist10oC87%T.T. SINGH
OPUG00000KT3000mHaze11oC81%Gujrat